Terminal Aerodrome Forecast
Issued by NWS

Home | Current Version | Previous Version | Text Only | Print | Product List | Glossary On
Versions: 1 2 3 4 5 6 7 8 9 10 11 12 13 14
000
FTUS46 KHNX 281720
TAFBFL
TAF
KBFL 281720Z 2818/2918 VRB04KT P6SM OVC030
      TEMPO 2820/2824 32010G20KT -TSRA BKN030CB
     FM290400 34006KT P6SM SCT040=

USA.gov is the U.S. government's official web portal to all federal, state and local government web resources and services.